Morning Camilla — H3LJ — position and weather

sailwx.info

Track history (hours):
 
Tides and Currents Weather Stations Pressure Air Temp Water Temp Dewpoint Dewpoint Depression Visibility Wind Speed Wind Dir Waves Ship Positions

Morning Camilla

Last reported at 2017-Nov-24 08:20 UTC. Time now 2017-Nov-24 18:24 UTC.
Position S 34°20' E 151°14'.

Length 199 m; draft 8.1 m.

Type: Cargo ship. MMSI: 370299000.

Date/timePositionNaut miles runAvg speedWind from/ knotsBaromVisibWave heightAir tempDewpointWater temp
2017-Nov-24 08:20S 34°20' E 151°14'3 9.5
2017-Nov-24 08:00S 34°22' E 151°11'510.2
2017-Nov-24 07:30S 34°25' E 151°07'1 3.0
2017-Nov-24 07:00S 34°26' E 151°05'2 3.5
2017-Nov-24 06:30S 34°24' E 151°06'1 1.1
2017-Nov-24 06:00S 34°25' E 151°07'911.5
2017-Nov-24 05:15S 34°33' E 151°07'413.6
2017-Nov-24 04:57S 34°37' E 151°08'614.2
2017-Nov-24 04:31S 34°43' E 151°08'714.4
2017-Nov-24 04:01S 34°51' E 151°09'714.8
2017-Nov-24 03:31S 34°58' E 151°10'714.5
2017-Nov-24 03:01S 35°05' E 151°10'17017.3
2017-Nov-23 17:11S 37°46' E 150°03'317.6
2017-Nov-23 17:00S 37°48' E 149°60'918.2
2017-Nov-23 16:30S 37°53' E 149°50'918.4
2017-Nov-23 16:00S 37°59' E 149°41'918.1
2017-Nov-23 15:30S 38°04' E 149°32'918.6
2017-Nov-23 15:00S 38°09' E 149°22'918.2
2017-Nov-23 14:30S 38°14' E 149°12'918.3
2017-Nov-23 14:00S 38°20' E 149°03'918.3
2017-Nov-23 13:30S 38°25' E 148°53'918.2
2017-Nov-23 13:00S 38°30' E 148°44'918.2
2017-Nov-23 12:29S 38°36' E 148°35'918.5
2017-Nov-23 12:00S 38°42' E 148°25'16813.1
2017-Nov-22 23:10S 38°08' E 144°55'316.5
2017-Nov-22 23:00S 38°05' E 144°55'714.4
2017-Nov-22 22:30S 37°58' E 144°55'7 9.7
2017-Nov-22 21:49S 37°51' E 144°55'1 0.4
2017-Nov-22 19:12S 37°50' E 144°54'  
Track history (hours):
 
Tides and Currents Weather Stations Pressure Air Temp Water Temp Dewpoint Dewpoint Depression Visibility Wind Speed Wind Dir Waves Ship Positions

Morning Camilla

Last reported at 2017-Nov-24 08:20 UTC. Time now 2017-Nov-24 18:24 UTC.
Position S 34°20' E 151°14'.

Length 199 m; draft 8.1 m.

Type: Cargo ship. MMSI: 370299000.

Date/timePositionNaut miles runAvg speedWind from/ knotsBaromVisibWave heightAir tempDewpointWater temp
2017-Nov-24 08:20S 34°20' E 151°14'3 9.5
2017-Nov-24 08:00S 34°22' E 151°11'510.2
2017-Nov-24 07:30S 34°25' E 151°07'1 3.0
2017-Nov-24 07:00S 34°26' E 151°05'2 3.5
2017-Nov-24 06:30S 34°24' E 151°06'1 1.1
2017-Nov-24 06:00S 34°25' E 151°07'911.5
2017-Nov-24 05:15S 34°33' E 151°07'413.6
2017-Nov-24 04:57S 34°37' E 151°08'614.2
2017-Nov-24 04:31S 34°43' E 151°08'714.4
2017-Nov-24 04:01S 34°51' E 151°09'714.8
2017-Nov-24 03:31S 34°58' E 151°10'714.5
2017-Nov-24 03:01S 35°05' E 151°10'17017.3
2017-Nov-23 17:11S 37°46' E 150°03'317.6
2017-Nov-23 17:00S 37°48' E 149°60'918.2
2017-Nov-23 16:30S 37°53' E 149°50'918.4
2017-Nov-23 16:00S 37°59' E 149°41'918.1
2017-Nov-23 15:30S 38°04' E 149°32'918.6
2017-Nov-23 15:00S 38°09' E 149°22'918.2
2017-Nov-23 14:30S 38°14' E 149°12'918.3
2017-Nov-23 14:00S 38°20' E 149°03'918.3
2017-Nov-23 13:30S 38°25' E 148°53'918.2
2017-Nov-23 13:00S 38°30' E 148°44'918.2
2017-Nov-23 12:29S 38°36' E 148°35'918.5
2017-Nov-23 12:00S 38°42' E 148°25'16813.1
2017-Nov-22 23:10S 38°08' E 144°55'316.5
2017-Nov-22 23:00S 38°05' E 144°55'714.4
2017-Nov-22 22:30S 37°58' E 144°55'7 9.7
2017-Nov-22 21:49S 37°51' E 144°55'1 0.4
2017-Nov-22 19:12S 37°50' E 144°54'  

Dump ship's entire track history